createdAt,value
2023-03-21T00:08:03.685Z,7.70
2023-03-21T00:18:25.984Z,7.66
2023-03-21T00:28:47.019Z,7.61
2023-03-21T00:39:08.493Z,7.56
2023-03-21T00:49:33.874Z,7.52
2023-03-21T00:59:58.873Z,7.49
2023-03-21T01:10:20.242Z,7.46
2023-03-21T01:20:42.969Z,7.43
2023-03-21T01:31:05.686Z,7.39
2023-03-21T01:41:42.581Z,7.37
2023-03-21T01:52:37.400Z,7.32
2023-03-21T02:03:20.979Z,7.30
2023-03-21T02:14:05.686Z,7.26
2023-03-21T02:25:01.393Z,7.19
2023-03-21T02:35:44.145Z,7.17
2023-03-21T02:46:49.008Z,7.12
2023-03-21T02:57:17.516Z,7.12
2023-03-21T03:07:54.632Z,7.11
2023-03-21T03:18:34.869Z,7.10
2023-03-21T03:28:59.728Z,7.08
2023-03-21T03:39:21.457Z,7.05
2023-03-21T03:50:01.231Z,7.04
2023-03-21T04:00:25.567Z,7.01
2023-03-21T04:10:47.412Z,7.00
2023-03-21T04:21:13.354Z,6.96
2023-03-21T04:31:36.202Z,6.92
2023-03-21T04:42:05.103Z,6.90
2023-03-21T04:52:27.345Z,6.88
2023-03-21T05:02:48.866Z,6.85
2023-03-21T05:13:10.287Z,6.82
2023-03-21T05:23:31.875Z,6.81
2023-03-21T05:33:53.801Z,6.80
2023-03-21T05:44:16.228Z,6.79
2023-03-21T05:54:38.209Z,6.80
2023-03-21T06:05:00.038Z,6.80
2023-03-21T06:15:21.726Z,6.81
2023-03-21T06:25:50.397Z,6.83
2023-03-21T06:36:11.910Z,6.87
2023-03-21T06:46:33.624Z,6.90
2023-03-21T06:56:56.078Z,6.96
2023-03-21T07:07:26.368Z,7.00
2023-03-21T07:17:47.970Z,7.06
2023-03-21T07:28:09.496Z,7.22
2023-03-21T07:38:31.358Z,7.35
2023-03-21T07:48:53.033Z,7.48
2023-03-21T07:59:14.635Z,7.60
2023-03-21T08:09:37.142Z,7.72
2023-03-21T08:19:58.408Z,7.87
2023-03-21T08:30:22.139Z,8.00
2023-03-21T08:40:43.276Z,8.12
2023-03-21T08:51:04.144Z,8.27
2023-03-21T09:01:25.175Z,8.40
2023-03-21T09:11:46.601Z,8.55
2023-03-21T09:22:11.309Z,8.64
2023-03-21T09:32:33.123Z,8.74
2023-03-21T09:43:27.636Z,8.88
2023-03-21T09:53:50.902Z,9.02
2023-03-21T10:04:13.875Z,9.12
2023-03-21T10:14:41.500Z,9.22
2023-03-21T10:25:02.667Z,9.39
2023-03-21T10:35:23.609Z,9.53
2023-03-21T10:45:48.933Z,9.65
2023-03-21T10:56:11.222Z,9.71
2023-03-21T11:06:34.275Z,9.85
2023-03-21T11:16:55.623Z,10.03
2023-03-21T11:27:16.918Z,10.20
2023-03-21T11:37:39.488Z,10.37
2023-03-21T11:48:02.884Z,10.52
2023-03-21T11:58:36.623Z,10.67
2023-03-21T12:09:01.171Z,10.83
2023-03-21T12:19:51.288Z,10.99
2023-03-21T12:30:32.555Z,11.16
2023-03-21T12:41:21.638Z,11.26
2023-03-21T12:51:47.172Z,11.37
2023-03-21T13:02:32.310Z,11.55
2023-03-21T13:13:13.665Z,11.64
2023-03-21T13:23:39.472Z,11.60
2023-03-21T13:34:00.718Z,11.48
2023-03-21T13:44:44.788Z,11.37
2023-03-21T13:55:17.065Z,11.28
2023-03-21T14:05:39.570Z,11.25
2023-03-21T14:16:06.836Z,11.24
2023-03-21T14:26:34.516Z,11.20
2023-03-21T14:36:58.604Z,11.15
2023-03-21T14:47:26.254Z,11.06
2023-03-21T14:57:48.626Z,10.97
2023-03-21T15:08:14.257Z,10.91
2023-03-21T15:18:37.979Z,10.88
2023-03-21T15:28:59.988Z,10.87
2023-03-21T15:39:21.802Z,10.85
2023-03-21T15:49:43.101Z,10.85
2023-03-21T16:00:12.177Z,10.84
2023-03-21T16:10:37.609Z,10.84
2023-03-21T16:20:59.587Z,10.75
2023-03-21T16:31:23.371Z,10.70
2023-03-21T16:41:45.306Z,10.66
2023-03-21T16:52:06.762Z,10.60
2023-03-21T17:02:28.298Z,10.55
2023-03-21T17:12:49.730Z,10.49
2023-03-21T17:23:11.161Z,10.45
2023-03-21T17:33:32.119Z,10.38
2023-03-21T17:43:53.780Z,10.34
2023-03-21T17:54:15.104Z,10.28
2023-03-21T18:04:36.406Z,10.23
2023-03-21T18:14:57.476Z,10.19
2023-03-21T18:25:18.674Z,10.15
2023-03-21T18:35:40.276Z,10.11
2023-03-21T18:46:02.380Z,10.09
2023-03-21T18:57:13.227Z,10.06
2023-03-21T19:07:05.328Z,10.02
2023-03-21T19:18:21.796Z,10.01
2023-03-21T19:28:09.976Z,9.97
2023-03-21T19:38:31.564Z,9.94
2023-03-21T19:48:56.422Z,9.90
2023-03-21T19:59:18.426Z,9.87
2023-03-21T20:09:51.253Z,9.84
2023-03-21T20:20:17.137Z,9.81
2023-03-21T20:30:39.008Z,9.77
2023-03-21T20:41:04.151Z,9.74
2023-03-21T21:02:10.490Z,9.68
2023-03-21T21:12:31.785Z,9.63
2023-03-21T21:22:59.503Z,9.58
2023-03-21T21:33:22.661Z,9.52
2023-03-21T21:43:43.911Z,9.47
2023-03-21T21:54:06.144Z,9.43
2023-03-21T22:04:28.089Z,9.38
2023-03-21T22:14:49.429Z,9.35
2023-03-21T22:25:13.304Z,9.31
2023-03-21T22:35:35.102Z,9.29
2023-03-21T22:45:56.370Z,9.26
2023-03-21T22:56:17.645Z,9.24
2023-03-21T23:06:39.825Z,9.22
2023-03-21T23:17:02.893Z,9.20
2023-03-21T23:27:24.227Z,9.18
2023-03-21T23:37:52.410Z,9.15
2023-03-21T23:48:13.641Z,9.11
2023-03-21T23:58:35.058Z,9.08
